Time;durP1;ratioP1;P1;durP2;ratioP2;P2;SDS_P1;SDS_P2;PMS_P1;PMS_P2;Temp;Humidity;BMP_temperature;BMP_pressure;BME280_temperature;BME280_humidity;BME280_pressure;Samples;Min_cycle;Max_cycle;Signal;HPM_P1;HPM_P2
2023/08/20 00:00:16;;;;;;;11.00;3.60;;;18.30;99.90;;;;;;5014100;28;20225;-60
2023/08/20 00:02:47;;;;;;;9.73;3.47;;;18.20;99.90;;;;;;5013493;28;20246;-60
2023/08/20 00:05:16;;;;;;;7.50;3.30;;;18.20;99.90;;;;;;5012928;28;20229;-60
2023/08/20 00:07:45;;;;;;;10.00;3.57;;;18.30;99.90;;;;;;4997657;28;20669;-60
2023/08/20 00:10:14;;;;;;;10.03;3.27;;;18.30;99.90;;;;;;5013925;28;20234;-60
2023/08/20 00:12:42;;;;;;;10.07;4.07;;;18.40;99.90;;;;;;5014072;28;20230;-60
2023/08/20 00:15:11;;;;;;;7.93;3.40;;;18.50;99.90;;;;;;5007576;28;20673;-60
2023/08/20 00:17:42;;;;;;;13.83;3.23;;;18.50;99.90;;;;;;5011950;28;20222;-60
2023/08/20 00:20:13;;;;;;;12.00;3.30;;;18.60;99.90;;;;;;5008508;28;20304;-60
2023/08/20 00:22:44;;;;;;;9.17;3.17;;;18.60;99.90;;;;;;5012800;28;20272;-60
2023/08/20 00:25:14;;;;;;;10.43;3.40;;;18.60;99.90;;;;;;5008936;28;20209;-60
2023/08/20 00:27:44;;;;;;;9.07;3.57;;;18.50;99.90;;;;;;5011721;28;20226;-60
2023/08/20 00:30:14;;;;;;;11.17;3.60;;;18.50;99.90;;;;;;5002294;28;20219;-61
2023/08/20 00:32:43;;;;;;;9.03;3.27;;;18.40;99.90;;;;;;5004468;28;20222;-61
2023/08/20 00:35:11;;;;;;;10.63;3.50;;;18.40;99.90;;;;;;5007141;28;20230;-60
2023/08/20 00:37:40;;;;;;;10.33;3.60;;;18.40;99.90;;;;;;5012652;28;20301;-60
2023/08/20 00:40:10;;;;;;;10.00;3.93;;;18.40;99.90;;;;;;5013954;28;20222;-60
2023/08/20 00:42:38;;;;;;;10.80;3.40;;;18.30;99.90;;;;;;5002669;28;20218;-60
2023/08/20 00:45:07;;;;;;;9.40;3.73;;;18.30;99.90;;;;;;5003805;28;20218;-60
2023/08/20 00:47:38;;;;;;;10.37;3.30;;;18.30;99.90;;;;;;5012169;28;20226;-59
2023/08/20 00:50:08;;;;;;;11.07;3.70;;;18.30;99.90;;;;;;5011796;28;20221;-60
2023/08/20 00:52:37;;;;;;;8.47;3.70;;;18.30;99.90;;;;;;5011551;28;20620;-59
2023/08/20 00:55:12;;;;;;;11.37;3.57;;;18.40;99.90;;;;;;5005621;28;20548;-59
2023/08/20 00:57:41;;;;;;;12.13;3.50;;;18.40;99.90;;;;;;5010317;28;20576;-60
2023/08/20 01:00:11;;;;;;;10.30;3.70;;;18.40;99.90;;;;;;5013458;28;20229;-59
2023/08/20 01:02:41;;;;;;;9.40;3.87;;;18.40;99.90;;;;;;5013452;28;20233;-60
2023/08/20 01:05:13;;;;;;;9.33;3.67;;;18.40;99.90;;;;;;5009776;28;20698;-60
2023/08/20 01:08:03;;;;;;;9.27;3.43;;;18.40;99.90;;;;;;5010276;28;20226;-60
2023/08/20 01:10:43;;;;;;;7.30;3.47;;;18.40;99.90;;;;;;5001789;28;20195;-60
2023/08/20 01:13:12;;;;;;;16.57;3.90;;;18.40;99.90;;;;;;5009289;28;20319;-59
2023/08/20 01:15:40;;;;;;;13.47;3.43;;;18.40;99.90;;;;;;5009797;28;20249;-59
2023/08/20 01:18:10;;;;;;;6.50;3.57;;;18.40;99.90;;;;;;5010668;28;20225;-60
2023/08/20 01:20:44;;;;;;;10.47;3.20;;;18.40;99.90;;;;;;5007396;28;20230;-60
2023/08/20 01:23:37;;;;;;;10.40;3.40;;;18.40;99.90;;;;;;5008998;28;20228;-60
2023/08/20 01:26:20;;;;;;;9.97;3.40;;;18.40;99.90;;;;;;4995084;28;20222;-60
2023/08/20 01:28:50;;;;;;;9.17;3.60;;;18.40;99.90;;;;;;5009575;28;20218;-60
2023/08/20 01:31:20;;;;;;;8.73;3.63;;;18.40;99.90;;;;;;4994731;28;20202;-59
2023/08/20 01:33:49;;;;;;;7.60;3.70;;;18.40;99.90;;;;;;5006822;28;20198;-60
2023/08/20 01:36:18;;;;;;;11.30;3.30;;;18.40;99.90;;;;;;5008089;28;20225;-60
2023/08/20 01:38:46;;;;;;;8.03;3.40;;;18.40;99.90;;;;;;4994474;28;20305;-60
2023/08/20 01:41:15;;;;;;;7.13;3.30;;;18.40;99.90;;;;;;5010683;28;20249;-60
2023/08/20 01:43:43;;;;;;;8.73;3.20;;;18.40;99.90;;;;;;5006182;28;20256;-60
2023/08/20 01:46:13;;;;;;;10.50;3.70;;;18.40;99.90;;;;;;5009551;28;20277;-60
2023/08/20 01:48:42;;;;;;;11.53;3.40;;;18.50;99.90;;;;;;5010061;28;20222;-60
2023/08/20 01:51:10;;;;;;;11.07;3.30;;;18.50;99.90;;;;;;5007805;28;20234;-59
2023/08/20 01:53:38;;;;;;;10.03;3.60;;;18.50;99.90;;;;;;4982296;28;20605;-61
2023/08/20 01:56:12;;;;;;;8.20;3.50;;;18.50;99.90;;;;;;5004324;28;20218;-60
2023/08/20 01:58:40;;;;;;;11.50;3.33;;;18.50;99.90;;;;;;5006187;28;20601;-60
2023/08/20 02:01:09;;;;;;;8.50;3.40;;;18.40;99.90;;;;;;5008500;28;20297;-60
2023/08/20 02:03:39;;;;;;;7.90;3.30;;;18.30;99.90;;;;;;5010581;28;20269;-60
2023/08/20 02:06:07;;;;;;;10.27;3.40;;;18.30;99.90;;;;;;5005490;28;20246;-60
2023/08/20 02:08:35;;;;;;;9.60;3.20;;;18.20;99.90;;;;;;5010136;28;20222;-60
2023/08/20 02:11:05;;;;;;;7.53;3.50;;;18.10;99.90;;;;;;4983048;28;20217;-58
2023/08/20 02:13:33;;;;;;;4.73;2.93;;;18.10;99.90;;;;;;5008872;28;20679;-59
2023/08/20 02:16:02;;;;;;;9.63;3.50;;;18.00;99.90;;;;;;5008014;28;20190;-59
2023/08/20 02:18:31;;;;;;;10.77;4.10;;;18.00;99.90;;;;;;5010177;28;21005;-60
2023/08/20 02:21:02;;;;;;;12.53;4.50;;;17.90;99.90;;;;;;5008718;28;20225;-61
2023/08/20 02:23:30;;;;;;;9.73;4.50;;;17.90;99.90;;;;;;5007515;28;20226;-60
2023/08/20 02:26:00;;;;;;;11.50;3.90;;;17.90;99.90;;;;;;5008146;28;20597;-61
2023/08/20 02:28:28;;;;;;;10.60;4.13;;;17.90;99.90;;;;;;5008807;28;20232;-60
2023/08/20 02:30:57;;;;;;;9.57;4.57;;;17.80;99.90;;;;;;5010186;28;20198;-60
2023/08/20 02:33:26;;;;;;;8.77;3.93;;;17.80;99.90;;;;;;5003177;28;20222;-60
2023/08/20 02:35:54;;;;;;;7.97;3.53;;;17.80;99.90;;;;;;5008314;28;20225;-60
2023/08/20 02:38:24;;;;;;;11.33;4.30;;;17.80;99.90;;;;;;5012049;28;20220;-60
2023/08/20 02:40:52;;;;;;;11.00;4.33;;;17.80;99.90;;;;;;5007487;28;20233;-60
2023/08/20 02:43:21;;;;;;;8.73;4.27;;;17.80;99.90;;;;;;5006217;28;20672;-60
2023/08/20 02:45:49;;;;;;;9.47;4.10;;;17.90;99.90;;;;;;4994735;28;20196;-60
2023/08/20 02:48:18;;;;;;;14.27;4.20;;;17.90;99.90;;;;;;5008173;28;20217;-60
2023/08/20 02:50:47;;;;;;;11.23;4.50;;;17.90;99.90;;;;;;5005441;28;20230;-60
2023/08/20 02:53:15;;;;;;;9.27;4.37;;;17.90;99.90;;;;;;5010103;28;20688;-60
2023/08/20 02:55:45;;;;;;;9.13;4.40;;;17.90;99.90;;;;;;5011468;28;20225;-60
2023/08/20 02:58:13;;;;;;;16.37;4.40;;;17.90;99.90;;;;;;5008639;28;20209;-60
2023/08/20 03:00:42;;;;;;;10.07;3.80;;;17.90;99.90;;;;;;5011003;28;20652;-60
2023/08/20 03:03:11;;;;;;;14.53;4.63;;;17.90;99.90;;;;;;5010402;28;20226;-60
2023/08/20 03:05:39;;;;;;;11.97;4.40;;;17.90;99.90;;;;;;5006938;28;20225;-60
2023/08/20 03:08:07;;;;;;;15.27;5.37;;;17.90;99.90;;;;;;5011845;28;20218;-60
2023/08/20 03:10:36;;;;;;;11.50;4.87;;;18.00;99.90;;;;;;5002375;28;20673;-60
2023/08/20 03:13:06;;;;;;;8.27;4.43;;;18.00;99.90;;;;;;4984841;28;20234;-60
2023/08/20 03:15:34;;;;;;;12.30;4.80;;;18.00;99.90;;;;;;4985288;28;20219;-60
2023/08/20 03:18:03;;;;;;;14.37;4.03;;;18.00;99.90;;;;;;4991136;28;20222;-60
2023/08/20 03:20:32;;;;;;;11.47;4.10;;;17.90;99.90;;;;;;4972185;28;20227;-60
2023/08/20 03:23:00;;;;;;;11.97;4.50;;;17.90;99.90;;;;;;4989017;28;20219;-60
2023/08/20 03:25:28;;;;;;;7.93;4.10;;;17.90;99.90;;;;;;4985409;28;20195;-60
2023/08/20 03:27:57;;;;;;;11.37;3.77;;;17.80;99.90;;;;;;4990763;28;20201;-60
2023/08/20 03:30:27;;;;;;;12.13;4.00;;;17.80;99.90;;;;;;4985736;28;20562;-60
2023/08/20 03:32:55;;;;;;;10.20;3.83;;;17.70;99.90;;;;;;4983816;28;20219;-59
2023/08/20 03:35:24;;;;;;;14.83;4.10;;;17.70;99.90;;;;;;4986542;28;20225;-59
2023/08/20 03:37:52;;;;;;;9.47;4.03;;;17.60;99.90;;;;;;4995011;28;20226;-60
2023/08/20 03:40:20;;;;;;;11.27;4.20;;;17.50;99.90;;;;;;4990759;28;20566;-61
2023/08/20 03:42:49;;;;;;;14.47;4.33;;;17.50;99.90;;;;;;4994050;28;20197;-59
2023/08/20 03:45:17;;;;;;;9.60;4.17;;;17.40;99.90;;;;;;4988143;28;20231;-59
2023/08/20 03:47:47;;;;;;;10.00;4.30;;;17.40;99.90;;;;;;4992449;28;20238;-59
2023/08/20 03:50:18;;;;;;;10.43;4.07;;;17.40;99.90;;;;;;4994164;28;20343;-60
2023/08/20 03:52:47;;;;;;;8.07;4.40;;;17.30;99.90;;;;;;4986387;28;20269;-60
2023/08/20 03:55:15;;;;;;;14.97;4.13;;;17.30;99.90;;;;;;4992612;28;20545;-60
2023/08/20 03:57:43;;;;;;;10.80;4.30;;;17.30;99.90;;;;;;4992519;28;21794;-59
2023/08/20 04:00:13;;;;;;;8.03;4.13;;;17.20;99.90;;;;;;4991573;28;20735;-59
2023/08/20 04:02:41;;;;;;;9.70;4.40;;;17.20;99.90;;;;;;4993720;28;20584;-59
2023/08/20 04:05:12;;;;;;;9.77;4.13;;;17.20;99.90;;;;;;4991669;28;20645;-60
2023/08/20 04:07:40;;;;;;;12.77;4.27;;;17.10;99.90;;;;;;4987566;28;20218;-60
2023/08/20 04:10:09;;;;;;;8.53;3.90;;;17.10;99.90;;;;;;4992293;28;20196;-60
2023/08/20 04:12:38;;;;;;;7.20;3.97;;;17.00;99.90;;;;;;5000267;28;20264;-60
2023/08/20 04:15:07;;;;;;;10.10;3.90;;;17.00;99.90;;;;;;5008338;28;20223;-60
2023/08/20 04:17:35;;;;;;;9.77;3.63;;;16.90;99.90;;;;;;5004844;28;20223;-59
2023/08/20 04:20:07;;;;;;;12.67;4.37;;;16.90;99.90;;;;;;5010214;28;20229;-60
2023/08/20 04:22:38;;;;;;;10.17;4.57;;;16.90;99.90;;;;;;5013761;28;20216;-59
2023/08/20 04:25:07;;;;;;;11.33;4.37;;;16.90;99.90;;;;;;5008108;28;20731;-60
2023/08/20 04:27:36;;;;;;;6.87;4.50;;;16.90;99.90;;;;;;5005631;28;20232;-60
2023/08/20 04:30:06;;;;;;;8.63;4.30;;;16.90;99.90;;;;;;5008689;28;20222;-60
2023/08/20 04:32:34;;;;;;;10.83;5.10;;;16.80;99.90;;;;;;5009778;28;20321;-60
2023/08/20 04:35:03;;;;;;;11.23;4.77;;;16.80;99.90;;;;;;5005037;28;20233;-60
2023/08/20 04:37:31;;;;;;;9.60;5.20;;;16.80;99.90;;;;;;5007107;28;20659;-59
2023/08/20 04:40:04;;;;;;;6.33;4.17;;;16.80;99.90;;;;;;5011808;28;20228;-60
2023/08/20 04:42:32;;;;;;;6.20;4.23;;;16.80;99.90;;;;;;5009926;28;20321;-60
2023/08/20 04:45:01;;;;;;;10.77;3.80;;;16.80;99.90;;;;;;5009930;28;20225;-60
2023/08/20 04:47:29;;;;;;;10.67;3.73;;;16.70;99.90;;;;;;5012705;28;20679;-60
2023/08/20 04:49:58;;;;;;;6.43;4.10;;;16.70;99.90;;;;;;5013952;28;20240;-60
2023/08/20 04:52:26;;;;;;;7.43;3.80;;;16.70;99.90;;;;;;5002487;28;20194;-59
2023/08/20 04:54:54;;;;;;;7.93;3.83;;;16.60;99.90;;;;;;5006612;28;20217;-60
2023/08/20 04:57:24;;;;;;;7.37;4.10;;;16.50;99.90;;;;;;5005335;28;20564;-60
2023/08/20 04:59:53;;;;;;;9.93;4.27;;;16.50;99.90;;;;;;5010307;28;20222;-60
2023/08/20 05:02:21;;;;;;;6.80;3.80;;;16.40;99.90;;;;;;5004990;28;20233;-60
2023/08/20 05:04:50;;;;;;;6.70;4.07;;;16.40;99.90;;;;;;5005148;28;20276;-60
2023/08/20 05:07:20;;;;;;;12.23;4.97;;;16.40;99.90;;;;;;5005034;28;20276;-60
2023/08/20 05:09:48;;;;;;;11.60;4.40;;;16.50;99.90;;;;;;5009725;28;20195;-60
2023/08/20 05:12:16;;;;;;;8.90;3.80;;;16.50;99.90;;;;;;4967603;28;1198045;-59
2023/08/20 05:14:46;;;;;;;8.23;4.20;;;16.50;99.90;;;;;;5008710;28;20221;-59
2023/08/20 05:17:16;;;;;;;8.87;4.27;;;16.40;99.90;;;;;;5013737;28;20214;-59
2023/08/20 05:19:45;;;;;;;9.30;4.33;;;16.40;99.90;;;;;;5011019;28;20295;-59
2023/08/20 05:22:13;;;;;;;10.43;4.07;;;16.40;99.90;;;;;;5012074;28;20598;-59
2023/08/20 05:24:41;;;;;;;7.33;4.37;;;16.40;99.90;;;;;;5006248;28;20233;-59
2023/08/20 05:27:14;;;;;;;6.63;4.30;;;16.50;99.90;;;;;;5012853;28;20562;-60
2023/08/20 05:29:42;;;;;;;12.00;5.23;;;16.50;99.90;;;;;;4996470;28;20631;-60
2023/08/20 05:32:12;;;;;;;11.13;4.77;;;16.60;99.90;;;;;;5006087;28;20261;-60
2023/08/20 05:34:40;;;;;;;10.80;4.30;;;16.60;99.90;;;;;;4999457;28;20221;-59
2023/08/20 05:37:09;;;;;;;13.47;4.50;;;16.70;99.90;;;;;;5009681;28;20682;-59
2023/08/20 05:39:38;;;;;;;15.43;4.73;;;16.70;99.90;;;;;;5010036;28;20263;-59
2023/08/20 05:42:07;;;;;;;14.87;5.27;;;16.80;99.90;;;;;;5014195;28;20226;-59
2023/08/20 05:44:35;;;;;;;9.73;4.47;;;16.90;99.90;;;;;;5012041;28;20228;-59
2023/08/20 05:47:05;;;;;;;11.87;5.13;;;17.10;99.90;;;;;;5008957;28;20222;-59
2023/08/20 05:49:35;;;;;;;9.73;4.63;;;17.30;99.90;;;;;;5012921;28;20543;-59
2023/08/20 05:52:04;;;;;;;12.17;4.80;;;17.40;99.90;;;;;;5006346;28;20620;-60
2023/08/20 05:54:33;;;;;;;10.87;4.63;;;17.50;99.90;;;;;;5007820;28;20231;-60
2023/08/20 05:57:01;;;;;;;9.23;4.17;;;17.70;99.90;;;;;;5010971;28;20846;-60
2023/08/20 05:59:30;;;;;;;6.90;3.83;;;17.90;99.90;;;;;;5007633;28;20241;-60
2023/08/20 06:01:58;;;;;;;5.30;3.70;;;18.00;99.90;;;;;;5022745;23;20299;-59
2023/08/20 06:04:27;;;;;;;8.10;4.10;;;18.20;99.90;;;;;;5001051;28;20609;-59
2023/08/20 06:06:57;;;;;;;7.03;4.30;;;18.40;99.90;;;;;;5007368;28;20201;-59
2023/08/20 06:09:25;;;;;;;8.73;4.33;;;18.60;99.90;;;;;;5005612;28;20320;-59
2023/08/20 06:11:53;;;;;;;10.17;5.07;;;18.70;99.90;;;;;;5009180;28;20222;-59
2023/08/20 06:14:22;;;;;;;11.30;4.70;;;18.80;99.90;;;;;;5004678;28;20782;-60
2023/08/20 06:16:50;;;;;;;11.20;4.50;;;18.90;99.90;;;;;;5005411;28;20240;-59
2023/08/20 06:19:18;;;;;;;4.87;3.83;;;18.90;99.90;;;;;;5006662;28;20195;-59
2023/08/20 06:21:47;;;;;;;10.57;4.60;;;18.90;99.90;;;;;;5006944;28;20198;-59
2023/08/20 06:24:17;;;;;;;7.90;4.23;;;19.00;99.90;;;;;;5005125;28;20233;-59
2023/08/20 06:26:45;;;;;;;12.27;4.40;;;19.20;99.90;;;;;;5002341;28;20707;-59
2023/08/20 06:29:13;;;;;;;10.27;4.27;;;19.40;99.90;;;;;;5010222;28;20252;-59
2023/08/20 06:31:42;;;;;;;8.37;3.93;;;19.60;99.90;;;;;;5006409;28;20249;-59
2023/08/20 06:34:10;;;;;;;7.60;3.03;;;19.80;99.90;;;;;;5007696;28;20186;-59
2023/08/20 06:36:39;;;;;;;8.33;2.80;;;19.90;99.90;;;;;;5004450;28;20221;-59
2023/08/20 06:39:07;;;;;;;6.03;2.63;;;20.10;99.90;;;;;;5001641;28;20213;-59
2023/08/20 06:41:37;;;;;;;4.77;2.80;;;20.20;99.90;;;;;;5005227;28;20223;-59
2023/08/20 06:44:06;;;;;;;6.00;2.90;;;20.50;99.90;;;;;;5005115;28;20233;-59
2023/08/20 06:46:34;;;;;;;8.33;2.87;;;20.70;99.90;;;;;;5005896;28;20229;-59
2023/08/20 06:49:03;;;;;;;8.27;2.40;;;20.90;99.90;;;;;;5011238;28;20202;-59
2023/08/20 06:51:31;;;;;;;7.63;2.57;;;21.00;99.90;;;;;;5008969;28;20516;-60
2023/08/20 06:54:00;;;;;;;5.83;2.23;;;21.10;99.90;;;;;;5008445;28;20590;-60
2023/08/20 06:56:28;;;;;;;5.77;2.00;;;21.20;99.90;;;;;;5005736;28;20226;-59
2023/08/20 06:58:58;;;;;;;4.10;1.90;;;21.40;99.90;;;;;;5007059;28;20584;-59
2023/08/20 07:01:26;;;;;;;5.13;2.20;;;21.50;99.90;;;;;;5007636;28;20195;-60
2023/08/20 07:03:54;;;;;;;5.83;2.03;;;21.50;99.90;;;;;;5004203;28;20277;-59
2023/08/20 07:06:23;;;;;;;4.63;1.50;;;21.50;99.90;;;;;;5003681;28;20243;-59
2023/08/20 07:08:52;;;;;;;5.50;2.00;;;21.40;99.90;;;;;;5000950;28;20230;-59
2023/08/20 07:11:20;;;;;;;7.30;2.17;;;21.40;99.90;;;;;;5007626;28;20309;-59
2023/08/20 07:13:49;;;;;;;4.93;2.23;;;21.40;99.90;;;;;;5010523;28;20226;-59
2023/08/20 07:16:18;;;;;;;8.60;2.33;;;21.50;99.90;;;;;;5006375;28;20189;-60
2023/08/20 07:18:47;;;;;;;3.50;1.63;;;21.60;99.90;;;;;;5008252;28;20204;-59
2023/08/20 07:21:18;;;;;;;4.77;1.63;;;21.70;99.90;;;;;;5009133;28;20226;-60
2023/08/20 07:23:47;;;;;;;5.03;1.90;;;21.90;99.90;;;;;;5003905;28;20230;-60
2023/08/20 07:26:15;;;;;;;5.07;1.70;;;22.00;99.90;;;;;;5008833;28;20226;-60
2023/08/20 07:28:59;;;;;;;4.37;1.97;;;22.10;99.90;;;;;;5008562;28;20228;-59
2023/08/20 07:31:32;;;;;;;7.23;1.93;;;22.30;99.90;;;;;;5001900;28;20193;-60
2023/08/20 07:34:04;;;;;;;5.37;1.63;;;22.40;99.90;;;;;;5007810;28;20204;-59
2023/08/20 07:36:33;;;;;;;1.60;1.50;;;22.50;99.90;;;;;;5007002;28;20595;-60
2023/08/20 07:39:02;;;;;;;8.03;1.73;;;22.50;99.90;;;;;;5004992;28;20257;-60
2023/08/20 07:41:31;;;;;;;3.37;1.57;;;22.50;99.90;;;;;;5001128;28;20229;-60
2023/08/20 07:43:59;;;;;;;5.73;1.80;;;22.50;99.90;;;;;;5002935;28;20220;-60
2023/08/20 07:46:29;;;;;;;2.73;1.27;;;22.60;99.90;;;;;;5003081;28;20205;-60
2023/08/20 07:48:57;;;;;;;5.63;1.93;;;22.60;99.90;;;;;;5003965;28;20194;-60
2023/08/20 07:51:26;;;;;;;3.73;1.50;;;22.70;99.90;;;;;;5006507;28;20710;-60
2023/08/20 07:53:54;;;;;;;4.37;1.53;;;22.70;99.90;;;;;;5009114;28;20224;-60
2023/08/20 07:56:23;;;;;;;5.60;1.73;;;22.80;99.90;;;;;;5003239;28;20221;-60
2023/08/20 07:58:51;;;;;;;6.50;1.57;;;22.80;99.90;;;;;;5006337;28;20244;-60
2023/08/20 08:01:20;;;;;;;3.30;1.50;;;22.90;99.90;;;;;;5005357;28;20187;-60
2023/08/20 08:03:49;;;;;;;2.43;1.60;;;23.00;99.90;;;;;;5005744;28;20241;-60
2023/08/20 08:06:18;;;;;;;4.87;1.70;;;23.20;99.90;;;;;;5006159;28;20255;-60
2023/08/20 08:08:47;;;;;;;2.07;1.50;;;23.40;99.90;;;;;;5000860;28;20877;-60
2023/08/20 08:11:15;;;;;;;2.97;1.40;;;23.50;99.90;;;;;;5004053;28;20226;-60
2023/08/20 08:13:45;;;;;;;4.43;1.50;;;23.50;99.90;;;;;;4999697;28;20233;-60
2023/08/20 08:16:13;;;;;;;4.80;1.53;;;23.60;99.90;;;;;;5004179;28;20195;-60
2023/08/20 08:18:42;;;;;;;2.83;1.40;;;23.60;99.90;;;;;;5011659;28;20230;-61
2023/08/20 08:21:11;;;;;;;3.60;1.40;;;23.60;99.90;;;;;;5002156;28;20293;-61
2023/08/20 08:23:40;;;;;;;1.40;1.30;;;23.70;99.90;;;;;;5003245;28;20581;-61
2023/08/20 08:26:08;;;;;;;5.57;1.30;;;23.90;99.90;;;;;;5009795;28;20222;-60
2023/08/20 08:28:36;;;;;;;3.00;1.67;;;24.10;99.90;;;;;;5006463;28;20612;-61
2023/08/20 08:31:05;;;;;;;1.93;1.40;;;24.20;99.90;;;;;;5004903;28;20190;-61
2023/08/20 08:33:35;;;;;;;2.40;1.37;;;24.20;99.90;;;;;;5009176;28;20219;-61
2023/08/20 08:36:04;;;;;;;4.65;2.10;;;24.30;99.90;;;;;;5006965;28;20225;-61
2023/08/20 08:38:36;;;;;;;3.03;1.40;;;24.40;99.90;;;;;;5003496;28;20234;-61
2023/08/20 08:41:06;;;;;;;1.67;1.50;;;24.50;99.90;;;;;;5007022;28;20219;-61
2023/08/20 08:43:35;;;;;;;1.17;1.17;;;24.50;99.90;;;;;;5006909;28;20251;-61
2023/08/20 08:46:07;;;;;;;1.77;1.30;;;24.70;99.90;;;;;;5002136;28;20220;-61
2023/08/20 08:48:36;;;;;;;5.25;1.63;;;25.20;99.90;;;;;;4984195;28;20229;-61
2023/08/20 08:51:04;;;;;;;2.83;1.30;;;25.00;99.90;;;;;;5010125;28;20581;-62
2023/08/20 08:53:34;;;;;;;1.30;0.98;;;25.00;99.90;;;;;;4999438;28;20221;-61
2023/08/20 08:56:05;;;;;;;2.78;1.48;;;24.90;99.90;;;;;;5007218;28;20696;-62
2023/08/20 08:58:34;;;;;;;3.22;1.27;;;25.20;99.90;;;;;;5003977;28;20206;-60
2023/08/20 09:01:03;;;;;;;1.40;1.30;;;25.20;99.90;;;;;;5007191;28;20283;-61
2023/08/20 09:03:32;;;;;;;3.47;1.30;;;25.70;99.90;;;;;;5004600;28;20228;-61
2023/08/20 09:06:03;;;;;;;2.08;1.30;;;26.00;99.90;;;;;;5012056;28;20580;-60
2023/08/20 09:08:33;;;;;;;1.45;1.20;;;26.40;99.90;;;;;;5003986;28;20229;-61
2023/08/20 09:11:02;;;;;;;2.42;1.13;;;26.50;99.90;;;;;;4988242;28;20702;-61
2023/08/20 09:13:34;;;;;;;2.55;1.33;;;26.30;99.90;;;;;;5003996;28;20301;-62
2023/08/20 09:16:05;;;;;;;2.35;1.50;;;26.00;99.90;;;;;;5006474;28;20201;-61
2023/08/20 09:18:34;;;;;;;2.83;1.40;;;26.00;99.90;;;;;;5000429;28;20232;-61
2023/08/20 09:21:02;;;;;;;4.03;1.63;;;26.10;99.90;;;;;;4998794;28;20218;-61
2023/08/20 09:23:33;;;;;;;1.83;1.10;;;26.00;99.90;;;;;;5002849;28;20230;-61
2023/08/20 09:26:03;;;;;;;1.50;1.17;;;26.00;99.90;;;;;;5001141;28;20238;-61
2023/08/20 09:28:42;;;;;;;2.15;1.10;;;26.10;99.90;;;;;;5003773;28;20194;-62
2023/08/20 09:31:10;;;;;;;2.75;1.30;;;26.20;99.90;;;;;;5004409;28;20656;-61
2023/08/20 09:33:50;;;;;;;4.68;1.60;;;26.50;99.90;;;;;;4994085;28;20714;-61
2023/08/20 09:36:19;;;;;;;2.75;1.10;;;26.70;99.90;;;;;;4998967;28;20315;-61
2023/08/20 09:38:53;;;;;;;1.02;1.02;;;26.90;99.90;;;;;;5000793;28;20215;-62
2023/08/20 09:41:23;;;;;;;2.33;1.17;;;27.10;99.90;;;;;;5004642;28;20222;-61
2023/08/20 09:43:57;;;;;;;1.70;1.13;;;27.20;99.90;;;;;;5002171;28;20236;-61
2023/08/20 09:46:25;;;;;;;1.60;1.30;;;27.50;99.90;;;;;;4999434;28;20190;-61
2023/08/20 09:48:57;;;;;;;3.80;1.60;;;27.70;99.90;;;;;;5002608;28;20217;-61
2023/08/20 09:51:28;;;;;;;7.93;1.30;;;27.90;99.90;;;;;;4996922;28;20214;-61
2023/08/20 09:54:08;;;;;;;2.10;1.38;;;27.90;99.90;;;;;;5002211;28;20293;-61
2023/08/20 09:56:39;;;;;;;1.35;1.10;;;27.90;99.90;;;;;;4999102;28;20298;-62
2023/08/20 09:59:08;;;;;;;1.00;0.95;;;28.40;99.90;;;;;;4999784;28;20561;-62
2023/08/20 10:01:38;;;;;;;4.07;1.02;;;28.40;99.90;;;;;;4983941;28;25050;-62
2023/08/20 10:04:07;;;;;;;3.53;1.30;;;28.50;99.90;;;;;;5017771;28;20226;-61
2023/08/20 10:06:37;;;;;;;1.45;0.80;;;28.70;99.90;;;;;;5022732;28;20222;-62
2023/08/20 10:09:07;;;;;;;1.55;1.00;;;28.90;99.90;;;;;;5026303;28;20251;-62
2023/08/20 10:11:37;;;;;;;0.90;0.90;;;29.50;99.90;;;;;;5014673;28;20222;-61
2023/08/20 10:14:05;;;;;;;1.70;1.05;;;29.90;99.90;;;;;;5005985;28;21418;-61
2023/08/20 10:16:34;;;;;;;1.30;1.02;;;30.30;99.90;;;;;;5019304;28;20197;-61
2023/08/20 10:19:04;;;;;;;3.88;1.10;;;30.60;99.90;;;;;;5020282;28;20194;-62
2023/08/20 10:21:33;;;;;;;1.55;1.40;;;30.80;99.90;;;;;;5018709;28;20221;-62
2023/08/20 10:24:05;;;;;;;2.42;1.05;;;31.30;99.90;;;;;;5022851;28;20777;-61
2023/08/20 10:26:36;;;;;;;2.97;1.30;;;31.60;99.90;;;;;;5018720;28;20233;-61
2023/08/20 10:29:35;;;;;;;2.65;1.50;;;31.40;99.90;;;;;;5011779;28;20222;-61
2023/08/20 10:32:06;;;;;;;0.90;0.90;;;31.40;99.90;;;;;;4999881;28;20693;-60
2023/08/20 10:34:36;;;;;;;0.85;0.85;;;31.50;99.90;;;;;;5021590;28;20213;-62
2023/08/20 10:37:09;;;;;;;1.17;0.85;;;31.70;99.90;;;;;;5037246;28;20222;-62
2023/08/20 10:39:37;;;;;;;1.98;1.05;;;32.00;99.90;;;;;;5022113;28;20254;-61
2023/08/20 10:42:32;;;;;;;3.22;1.27;;;32.10;99.90;;;;;;5024489;28;20229;-62
2023/08/20 10:45:03;;;;;;;1.27;1.02;;;32.10;99.90;;;;;;5001032;28;20226;-61
2023/08/20 10:47:47;;;;;;;0.90;0.80;;;31.90;99.90;;;;;;5019315;28;20237;-61
2023/08/20 10:50:18;;;;;;;2.67;0.93;;;32.10;99.90;;;;;;5019144;28;20232;-61
2023/08/20 10:52:50;;;;;;;2.05;0.90;;;32.50;99.90;;;;;;5022355;28;20232;-62
2023/08/20 10:55:23;;;;;;;1.98;1.33;;;32.50;99.90;;;;;;5019321;28;20185;-61
2023/08/20 10:57:59;;;;;;;1.38;1.20;;;32.60;99.90;;;;;;5020153;28;20220;-62
2023/08/20 11:00:28;;;;;;;1.27;1.08;;;32.60;99.90;;;;;;5019572;28;20275;-61
2023/08/20 11:02:57;;;;;;;2.97;1.20;;;32.90;99.90;;;;;;5017940;28;20260;-61
2023/08/20 11:05:27;;;;;;;4.25;1.40;;;32.70;99.90;;;;;;5020698;28;20225;-62
2023/08/20 11:07:55;;;;;;;1.40;1.20;;;32.30;99.90;;;;;;5018409;28;20227;-61
2023/08/20 11:10:23;;;;;;;1.95;1.05;;;32.50;99.90;;;;;;5020219;28;20293;-61
2023/08/20 11:12:52;;;;;;;1.77;1.20;;;32.40;99.90;;;;;;5018232;28;20205;-61
2023/08/20 11:15:22;;;;;;;2.25;1.20;;;32.30;99.90;;;;;;5017161;28;20261;-61
2023/08/20 11:17:51;;;;;;;1.55;1.20;;;32.40;99.90;;;;;;5023100;28;20221;-61
2023/08/20 11:20:20;;;;;;;2.90;1.33;;;32.30;99.90;;;;;;5019439;28;20218;-61
2023/08/20 11:22:49;;;;;;;1.17;1.10;;;32.30;99.90;;;;;;5022735;28;20319;-61
2023/08/20 11:25:17;;;;;;;1.38;1.27;;;32.30;99.90;;;;;;5022723;28;20205;-61
2023/08/20 11:27:45;;;;;;;5.15;1.30;;;32.40;99.90;;;;;;5022922;28;20221;-61
2023/08/20 11:30:14;;;;;;;2.08;1.00;;;32.30;99.90;;;;;;5017547;28;20579;-62
2023/08/20 11:32:46;;;;;;;2.00;1.13;;;32.30;99.90;;;;;;5022878;28;20583;-61
2023/08/20 11:35:15;;;;;;;0.80;0.80;;;32.10;99.90;;;;;;5018554;28;20631;-61
2023/08/20 11:37:44;;;;;;;4.32;1.30;;;32.20;99.90;;;;;;5019326;28;20336;-61
2023/08/20 11:40:12;;;;;;;1.20;1.10;;;32.30;99.90;;;;;;5020739;28;20268;-61
2023/08/20 11:42:41;;;;;;;1.70;1.13;;;32.30;99.90;;;;;;5020055;28;20248;-62
2023/08/20 11:45:11;;;;;;;1.23;1.13;;;32.10;99.90;;;;;;5016189;28;20209;-62
2023/08/20 11:47:40;;;;;;;2.08;1.10;;;32.10;99.90;;;;;;5018731;28;20217;-62
2023/08/20 11:50:11;;;;;;;1.75;1.05;;;32.20;99.90;;;;;;5022930;28;20725;-61
2023/08/20 11:52:40;;;;;;;1.42;1.15;;;32.10;99.90;;;;;;5026531;28;20310;-62
2023/08/20 11:55:10;;;;;;;4.68;1.25;;;32.00;99.90;;;;;;5028282;28;20228;-62
2023/08/20 11:57:38;;;;;;;3.08;1.23;;;31.90;99.90;;;;;;5022280;28;20230;-61
2023/08/20 12:00:10;;;;;;;2.15;1.13;;;31.80;99.90;;;;;;5023945;28;20217;-61
2023/08/20 12:02:41;;;;;;;1.35;0.98;;;31.60;99.90;;;;;;5024961;28;20316;-62
2023/08/20 12:05:12;;;;;;;2.25;1.48;;;31.60;99.90;;;;;;5024851;28;20261;-62
2023/08/20 12:07:40;;;;;;;3.28;1.10;;;31.70;99.90;;;;;;5024574;28;20228;-62
2023/08/20 12:10:22;;;;;;;1.17;1.00;;;31.50;99.90;;;;;;5023668;28;20547;-62
2023/08/20 12:12:51;;;;;;;2.30;1.13;;;31.40;99.90;;;;;;5027391;28;20312;-62
2023/08/20 12:15:19;;;;;;;1.13;1.10;;;31.50;99.90;;;;;;5020281;28;20225;-62
2023/08/20 12:17:58;;;;;;;2.60;1.35;;;31.50;99.90;;;;;;5024739;28;20221;-62
2023/08/20 12:20:32;;;;;;;1.65;1.17;;;31.40;99.90;;;;;;5025676;28;20221;-62
2023/08/20 12:23:03;;;;;;;1.83;1.25;;;31.30;99.90;;;;;;5023025;28;20633;-62
2023/08/20 12:25:33;;;;;;;3.25;1.20;;;31.10;99.90;;;;;;5027159;28;20300;-62
2023/08/20 12:28:03;;;;;;;1.65;1.35;;;31.00;99.90;;;;;;5025044;28;22329;-61
2023/08/20 12:30:32;;;;;;;2.28;1.42;;;30.90;99.90;;;;;;5025463;28;20260;-61
2023/08/20 12:33:04;;;;;;;2.25;1.17;;;30.60;99.90;;;;;;5021944;28;20228;-61
2023/08/20 12:35:34;;;;;;;3.05;1.35;;;30.30;99.90;;;;;;5025665;28;20297;-62
2023/08/20 12:38:02;;;;;;;2.22;1.30;;;30.10;99.90;;;;;;5025214;28;20222;-61
2023/08/20 12:40:31;;;;;;;1.08;1.05;;;30.10;99.90;;;;;;5024226;28;20191;-61
2023/08/20 12:43:00;;;;;;;2.60;1.25;;;30.00;99.90;;;;;;5023656;28;20231;-61
2023/08/20 12:45:28;;;;;;;5.20;1.15;;;29.90;99.90;;;;;;5027806;28;20248;-62
2023/08/20 12:47:56;;;;;;;2.38;1.20;;;29.80;99.90;;;;;;5024414;28;20321;-61
2023/08/20 12:50:29;;;;;;;3.08;1.40;;;29.80;99.90;;;;;;5030703;28;20256;-62
2023/08/20 12:52:58;;;;;;;2.13;1.45;;;29.60;99.90;;;;;;5025338;28;20238;-62
2023/08/20 12:55:27;;;;;;;1.67;1.20;;;29.40;99.90;;;;;;5022849;28;20194;-62